Saint Croix Falls, WI

6:01 AM CDT on March 29, 2015 (GMT -0500)
WIDOT St. Croix Falls - USH 8 3 mi E of town | | Change Station
CLOSE
Current Station
Personal Weather Station
Location: Saint Croix Falls, WI
Elevation: 1190 ft
Nearby Weather Stations

Elev 1190 ft 45.40 °N, 92.59 °W | Updated 58 minutes ago

Ice Pellets
Ice Pellets
33 °F
Feels Like 25 °F
N
10
Wind Variable Wind from SSE
Gusts 22.0 mph

Today
High -- | Low -- °F
--% Chance of Precip.
Yesterday
High -- | Low -- °F
Precip. -- in
6:56 AM 7:34 PM
Waxing Gibbous, 70% visible
Pressure 29.74 in
Visibility 10.0 miles
Clouds Overcast 6000 ft
Windchill 25 °F
Dew Point 27 °F
Humidity 79%
Rainfall in
Snow Depth Not available.
UV 0 out of 12
Pollen 1.80 out of 12
Air Quality Not available.
Flu Activity Not available.
METAR KOEO 291035Z AUTO 18014G18KT 10SM UP OVC060 01/M01 A2974 RMK AO2 P0002 T00101010

More Conditions Fewer Conditions

Pressure 29.74 in
Visibility 10.0 miles
Clouds Overcast 6000 ft
Windchill 25 °F
Dew Point 27 °F
Humidity 79%
Rainfall in
Snow Depth Not available.
UV 0 out of 12
Pollen 1.80 out of 12
Air Quality Not available.
Flu Activity Not available.
METAR KOEO 291035Z AUTO 18014G18KT 10SM UP OVC060 01/M01 A2974 RMK AO2 P0002 T00101010

More Conditions Fewer Conditions

10-Day Weather Forecast

Almanac

Astronomy

Mar. 29, 2015 Rise Set
Actual Time
Civil Twilight
Nautical Twilight
Astronomical Twilight
Moon
Length of Visible Light
Length of Day
Tomorrow will be .
, % of the Moon is Illuminated

Today's Extremes

State Highs State Lows

Community

WunderPhotos

Upload Photos

1,809,214 photos uploaded!

WunderBlogs® & News

Nearby

Air Quality

  Air Quality AQ Index Pollutant
Not available.

Snow Depth

Station Depth Elevation

Earthquake Activity

City Distance Mag. Time & Date
Minimum magnitude displayed is 2.5.

Coastal Water Temperatures

Place Temperature

Stations

Nearby Weather Stations

Station Location Temp. Windchill Dew Point Humidity Wind Precip. Elev Updated Type